createdAt,value
2024-03-28T00:00:38.188Z,62.68
2024-03-28T00:03:43.219Z,62.28
2024-03-28T00:06:33.205Z,62.13
2024-03-28T00:09:22.578Z,61.86
2024-03-28T00:12:12.359Z,61.63
2024-03-28T00:15:02.447Z,61.53
2024-03-28T00:17:52.434Z,61.35
2024-03-28T00:20:42.106Z,61.29
2024-03-28T00:23:31.686Z,61.30
2024-03-28T00:26:21.260Z,61.27
2024-03-28T00:29:10.932Z,61.40
2024-03-28T00:32:01.126Z,61.44
2024-03-28T00:34:51.315Z,61.66
2024-03-28T00:37:41.201Z,61.75
2024-03-28T00:40:31.306Z,62.17
2024-03-28T00:43:21.787Z,62.32
2024-03-28T00:46:12.389Z,62.75
2024-03-28T00:49:02.374Z,62.93
2024-03-28T00:51:52.043Z,63.05
2024-03-28T00:54:41.721Z,63.44
2024-03-28T00:57:31.392Z,63.55
2024-03-28T01:00:21.383Z,63.76
2024-03-28T01:03:11.059Z,64.21
2024-03-28T01:06:01.186Z,64.34
2024-03-28T01:08:51.137Z,64.59
2024-03-28T01:11:40.922Z,64.77
2024-03-28T01:14:32.015Z,64.94
2024-03-28T01:17:22.105Z,65.12
2024-03-28T01:20:12.301Z,65.30
2024-03-28T01:23:02.667Z,65.25
2024-03-28T01:25:52.680Z,65.46
2024-03-28T01:28:44.613Z,65.43
2024-03-28T01:31:33.779Z,65.58
2024-03-28T01:34:24.374Z,65.23
2024-03-28T01:37:14.684Z,64.90
2024-03-28T01:40:05.142Z,64.62
2024-03-28T01:43:04.396Z,64.61
2024-03-28T01:45:54.255Z,64.61
2024-03-28T01:48:45.497Z,64.41
2024-03-28T01:51:35.032Z,64.30
2024-03-28T01:54:24.918Z,64.30
2024-03-28T01:57:15.172Z,64.37
2024-03-28T02:00:05.701Z,64.59
2024-03-28T02:03:02.424Z,64.69
2024-03-28T02:05:52.627Z,64.91
2024-03-28T02:08:42.000Z,64.87
2024-03-28T02:11:32.201Z,64.99
2024-03-28T02:14:21.879Z,65.14
2024-03-28T02:17:11.345Z,65.45
2024-03-28T02:20:00.709Z,65.80
2024-03-28T02:22:50.811Z,65.66
2024-03-28T02:25:40.174Z,65.80
2024-03-28T02:28:35.534Z,65.90
2024-03-28T02:31:25.188Z,65.86
2024-03-28T02:34:16.526Z,65.39
2024-03-28T02:37:06.150Z,64.89
2024-03-28T02:39:56.540Z,64.39
2024-03-28T02:42:45.913Z,63.79
2024-03-28T02:45:35.709Z,63.33
2024-03-28T02:48:25.686Z,62.82
2024-03-28T02:51:15.564Z,62.26
2024-03-28T02:54:05.234Z,62.21
2024-03-28T02:56:54.815Z,62.04
2024-03-28T02:59:44.795Z,61.83
2024-03-28T03:02:34.383Z,61.68
2024-03-28T03:05:23.953Z,61.62
2024-03-28T03:08:13.317Z,61.67
2024-03-28T03:11:03.623Z,61.52
2024-03-28T03:13:53.598Z,61.48
2024-03-28T03:16:43.278Z,61.48
2024-03-28T03:19:32.778Z,61.53
2024-03-28T03:22:23.549Z,61.57
2024-03-28T03:25:14.658Z,61.53
2024-03-28T03:28:23.497Z,61.76
2024-03-28T03:31:32.014Z,61.93
2024-03-28T03:34:36.530Z,62.05
2024-03-28T03:37:27.329Z,62.16
2024-03-28T03:40:17.136Z,62.28
2024-03-28T03:43:06.912Z,62.50
2024-03-28T03:45:56.978Z,62.40
2024-03-28T03:48:47.171Z,62.57
2024-03-28T03:51:37.060Z,62.59
2024-03-28T03:54:26.842Z,62.65
2024-03-28T03:57:17.234Z,62.65
2024-03-28T04:00:11.218Z,62.73
2024-03-28T04:03:00.771Z,62.91
2024-03-28T04:05:51.079Z,63.10
2024-03-28T04:08:40.545Z,63.37
2024-03-28T04:11:30.220Z,63.54
2024-03-28T04:14:20.522Z,63.84
2024-03-28T04:17:10.000Z,63.77
2024-03-28T04:19:59.668Z,63.70
2024-03-28T04:22:49.451Z,63.52
2024-03-28T04:25:38.925Z,63.44
2024-03-28T04:28:28.703Z,63.37
2024-03-28T04:31:18.594Z,63.31
2024-03-28T04:34:08.878Z,63.09
2024-03-28T04:36:58.854Z,63.19
2024-03-28T04:39:49.255Z,63.01
2024-03-28T04:42:38.831Z,62.81
2024-03-28T04:45:28.603Z,62.52
2024-03-28T04:48:17.872Z,61.98
2024-03-28T04:51:08.159Z,61.66
2024-03-28T04:53:58.047Z,61.44
2024-03-28T04:56:48.877Z,61.40
2024-03-28T04:59:38.628Z,61.43
2024-03-28T05:02:28.831Z,61.52
2024-03-28T05:05:18.504Z,61.55
2024-03-28T05:08:08.374Z,62.06
2024-03-28T05:10:58.256Z,62.85
2024-03-28T05:13:47.942Z,63.56
2024-03-28T05:16:38.626Z,63.89
2024-03-28T05:19:28.519Z,63.61
2024-03-28T05:22:18.097Z,63.33
2024-03-28T05:25:08.400Z,63.08
2024-03-28T05:27:58.172Z,63.13
2024-03-28T05:30:48.667Z,63.25
2024-03-28T05:33:38.762Z,63.23
2024-03-28T05:36:28.136Z,64.83
2024-03-28T05:39:20.873Z,65.75
2024-03-28T05:42:10.556Z,67.13
2024-03-28T05:45:00.017Z,68.52
2024-03-28T05:47:49.908Z,69.17
2024-03-28T05:50:40.093Z,70.11
2024-03-28T05:53:29.673Z,70.99
2024-03-28T05:56:20.269Z,70.61
2024-03-28T05:59:10.253Z,70.42
2024-03-28T06:02:00.200Z,70.88
2024-03-28T06:04:50.323Z,70.89
2024-03-28T06:07:40.270Z,70.64
2024-03-28T06:10:29.727Z,70.47
2024-03-28T06:13:19.574Z,70.38
2024-03-28T06:16:10.180Z,70.23
2024-03-28T06:19:00.347Z,70.06
2024-03-28T06:21:50.236Z,69.87
2024-03-28T06:24:40.314Z,69.69
2024-03-28T06:27:30.504Z,69.27
2024-03-28T06:30:27.047Z,68.75
2024-03-28T06:33:16.717Z,67.99
2024-03-28T06:36:07.675Z,66.32
2024-03-28T06:38:57.106Z,64.43
2024-03-28T06:41:47.399Z,63.47
2024-03-28T06:44:37.585Z,63.24
2024-03-28T06:47:27.270Z,63.32
2024-03-28T06:50:17.557Z,63.57
2024-03-28T06:53:07.235Z,63.84
2024-03-28T06:55:57.012Z,63.55
2024-03-28T06:58:46.385Z,62.87
2024-03-28T07:01:36.060Z,62.63
2024-03-28T07:04:25.950Z,62.21
2024-03-28T07:07:15.616Z,61.74
2024-03-28T07:10:05.713Z,61.76
2024-03-28T07:12:56.206Z,61.24
2024-03-28T07:15:45.882Z,60.99
2024-03-28T07:18:35.901Z,60.67
2024-03-28T07:21:25.855Z,60.16
2024-03-28T07:24:16.386Z,60.17
2024-03-28T07:27:06.429Z,59.75
2024-03-28T07:29:56.412Z,60.17
2024-03-28T07:32:49.882Z,59.92
2024-03-28T07:35:39.256Z,59.38
2024-03-28T07:38:29.032Z,57.72
2024-03-28T07:41:19.337Z,55.31
2024-03-28T07:44:09.619Z,52.82
2024-03-28T07:46:59.598Z,51.15
2024-03-28T07:49:49.173Z,49.45
2024-03-28T07:52:38.746Z,48.62
2024-03-28T07:55:28.121Z,49.08
2024-03-28T07:58:17.494Z,49.58
2024-03-28T08:01:10.167Z,51.15
2024-03-28T08:03:59.512Z,51.65
2024-03-28T08:06:49.292Z,51.91
2024-03-28T08:09:38.970Z,51.42
2024-03-28T08:12:29.456Z,51.61
2024-03-28T08:15:19.548Z,52.29
2024-03-28T08:18:09.270Z,52.33
2024-03-28T08:20:58.615Z,52.72
2024-03-28T08:23:48.782Z,53.41
2024-03-28T08:26:41.356Z,53.56
2024-03-28T08:29:31.311Z,53.63
2024-03-28T08:32:21.299Z,51.83
2024-03-28T08:35:14.981Z,50.44
2024-03-28T08:38:05.163Z,49.37
2024-03-28T08:40:55.043Z,47.69
2024-03-28T08:43:49.435Z,47.31
2024-03-28T08:46:39.736Z,47.46
2024-03-28T08:49:29.929Z,47.39
2024-03-28T08:52:20.510Z,47.61
2024-03-28T08:55:12.346Z,47.46
2024-03-28T08:58:02.024Z,47.77
2024-03-28T09:00:53.136Z,46.98
2024-03-28T09:03:43.847Z,47.56
2024-03-28T09:06:33.716Z,48.11
2024-03-28T09:09:24.819Z,49.20
2024-03-28T09:12:13.987Z,49.78
2024-03-28T09:15:05.207Z,49.15
2024-03-28T09:17:54.920Z,49.25
2024-03-28T09:20:46.938Z,48.90
2024-03-28T09:23:36.697Z,48.64
2024-03-28T09:26:26.569Z,49.30
2024-03-28T09:29:21.375Z,49.79
2024-03-28T09:32:10.948Z,50.06
2024-03-28T09:35:01.047Z,50.69
2024-03-28T09:37:50.608Z,50.89
2024-03-28T09:40:47.910Z,51.56
2024-03-28T09:43:37.436Z,52.40
2024-03-28T09:46:29.312Z,53.28
2024-03-28T09:49:18.938Z,53.19
2024-03-28T09:52:08.932Z,52.65
2024-03-28T09:54:58.806Z,52.38
2024-03-28T09:57:48.183Z,51.19
2024-03-28T10:00:38.651Z,50.11
2024-03-28T10:03:31.523Z,48.97
2024-03-28T10:06:21.815Z,47.97
2024-03-28T10:09:13.996Z,46.98
2024-03-28T10:12:14.096Z,46.45
2024-03-28T10:15:05.375Z,46.36
2024-03-28T10:18:01.871Z,45.86
2024-03-28T10:20:57.486Z,45.06
2024-03-28T10:23:47.329Z,44.98
2024-03-28T10:26:37.517Z,45.15
2024-03-28T10:29:32.460Z,45.49
2024-03-28T10:32:23.284Z,45.47
2024-03-28T10:35:13.209Z,45.43
2024-03-28T10:38:09.439Z,45.53
2024-03-28T10:41:02.188Z,45.32
2024-03-28T10:43:51.893Z,44.08
2024-03-28T10:46:41.547Z,43.15
2024-03-28T10:49:37.040Z,42.31
2024-03-28T10:52:39.441Z,41.38
2024-03-28T10:55:36.343Z,40.69
2024-03-28T10:58:26.163Z,40.32
2024-03-28T11:01:17.938Z,40.11
2024-03-28T11:04:07.045Z,40.40
2024-03-28T11:06:57.134Z,41.12
2024-03-28T11:09:46.715Z,40.87
2024-03-28T11:12:37.922Z,40.75
2024-03-28T11:15:28.119Z,39.90
2024-03-28T11:18:17.992Z,39.61
2024-03-28T11:21:07.668Z,39.30
2024-03-28T11:23:58.783Z,38.73
2024-03-28T11:26:58.502Z,38.87
2024-03-28T11:29:48.686Z,40.30
2024-03-28T11:32:38.292Z,40.51
2024-03-28T11:35:27.935Z,39.05
2024-03-28T11:38:17.511Z,39.15
2024-03-28T11:41:07.188Z,39.61
2024-03-28T11:43:56.867Z,40.22
2024-03-28T11:46:46.454Z,41.26
2024-03-28T11:49:36.180Z,41.20
2024-03-28T11:52:26.212Z,41.09
2024-03-28T11:55:15.786Z,40.48
2024-03-28T11:58:10.511Z,39.69
2024-03-28T12:01:04.246Z,39.36
2024-03-28T12:03:53.530Z,38.06
2024-03-28T12:06:43.813Z,38.07
2024-03-28T12:09:33.594Z,38.01
2024-03-28T12:12:23.583Z,37.76
2024-03-28T12:15:13.359Z,37.66
2024-03-28T12:18:03.595Z,37.09
2024-03-28T12:21:02.540Z,37.32
2024-03-28T12:23:52.118Z,37.04
2024-03-28T12:26:42.209Z,36.68
2024-03-28T12:29:31.987Z,36.55
2024-03-28T12:32:21.870Z,36.08
2024-03-28T12:35:13.139Z,35.44
2024-03-28T12:38:04.688Z,36.25
2024-03-28T12:40:55.721Z,36.46
2024-03-28T12:43:56.025Z,36.15
2024-03-28T12:46:46.336Z,35.53
2024-03-28T12:49:36.520Z,35.33
2024-03-28T12:52:26.165Z,34.63
2024-03-28T12:55:18.351Z,35.70
2024-03-28T12:58:08.640Z,35.46
2024-03-28T13:00:58.204Z,34.56
2024-03-28T13:03:52.789Z,34.90
2024-03-28T13:06:53.870Z,35.44
2024-03-28T13:09:45.563Z,34.80
2024-03-28T13:12:35.969Z,35.77
2024-03-28T13:49:58.521Z,36.32
2024-03-28T13:52:47.591Z,36.54
2024-03-28T13:55:37.593Z,37.18
2024-03-28T13:58:27.048Z,36.88
2024-03-28T14:01:18.056Z,37.41
2024-03-28T14:04:08.342Z,37.70
2024-03-28T14:06:57.615Z,37.00
2024-03-28T14:09:49.980Z,37.60
2024-03-28T14:12:41.384Z,37.35
2024-03-28T14:15:31.260Z,36.37
2024-03-28T14:18:21.037Z,36.84
2024-03-28T14:21:11.025Z,37.24
2024-03-28T14:24:00.801Z,37.43
2024-03-28T14:26:50.679Z,37.26
2024-03-28T14:29:40.464Z,37.15
2024-03-28T14:32:31.387Z,37.08
2024-03-28T14:35:21.253Z,37.16
2024-03-28T14:38:11.232Z,37.58
2024-03-28T14:41:05.734Z,36.72
2024-03-28T14:43:55.618Z,36.93
2024-03-28T14:46:45.210Z,37.22
2024-03-28T14:49:34.828Z,37.02
2024-03-28T14:52:24.941Z,36.59
2024-03-28T14:55:15.861Z,36.56
2024-03-28T14:58:05.326Z,36.60
2024-03-28T15:00:55.409Z,36.35
2024-03-28T15:03:45.907Z,36.64
2024-03-28T15:06:35.677Z,36.58
2024-03-28T15:09:25.366Z,36.24
2024-03-28T15:12:15.039Z,35.91
2024-03-28T15:15:05.128Z,36.02
2024-03-28T15:17:54.906Z,36.33
2024-03-28T15:20:44.382Z,36.43
2024-03-28T15:23:34.653Z,36.65
2024-03-28T15:26:24.964Z,36.46
2024-03-28T15:29:15.868Z,36.96
2024-03-28T15:32:15.160Z,36.96
2024-03-28T15:35:06.386Z,37.58
2024-03-28T15:37:57.502Z,37.66
2024-03-28T15:40:47.394Z,37.73
2024-03-28T15:43:37.367Z,37.91
2024-03-28T15:46:27.244Z,38.07
2024-03-28T15:49:16.829Z,38.33
2024-03-28T15:52:06.661Z,38.32
2024-03-28T15:54:57.105Z,37.94
2024-03-28T15:57:46.876Z,37.89
2024-03-28T16:00:36.595Z,37.59
2024-03-28T16:03:26.236Z,37.49
2024-03-28T16:06:17.492Z,37.72
2024-03-28T16:09:08.353Z,37.62
2024-03-28T16:11:58.641Z,37.94
2024-03-28T16:14:48.428Z,37.84
2024-03-28T16:17:38.404Z,38.23
2024-03-28T16:20:28.188Z,37.99
2024-03-28T16:23:18.512Z,38.40
2024-03-28T16:26:08.666Z,38.25
2024-03-28T16:29:06.743Z,38.59
2024-03-28T16:32:01.025Z,38.74
2024-03-28T16:34:50.829Z,38.69
2024-03-28T16:37:40.907Z,39.08
2024-03-28T16:40:30.281Z,39.45
2024-03-28T16:43:19.946Z,39.39
2024-03-28T16:46:09.823Z,39.37
2024-03-28T16:48:59.917Z,39.77
2024-03-28T16:51:50.104Z,39.85
2024-03-28T16:54:39.977Z,39.91
2024-03-28T16:57:29.365Z,40.14
2024-03-28T17:00:19.653Z,40.13
2024-03-28T17:03:09.324Z,40.43
2024-03-28T17:05:59.514Z,40.36
2024-03-28T17:08:49.506Z,41.01
2024-03-28T17:11:39.488Z,41.20
2024-03-28T17:14:29.268Z,41.25
2024-03-28T17:17:20.960Z,41.60
2024-03-28T17:20:11.491Z,41.67
2024-03-28T17:23:01.887Z,41.73
2024-03-28T17:25:51.965Z,42.17
2024-03-28T17:28:41.133Z,42.05
2024-03-28T17:31:31.115Z,42.41
2024-03-28T17:34:21.814Z,42.55
2024-03-28T17:37:11.801Z,42.69
2024-03-28T17:40:01.749Z,42.75
2024-03-28T17:42:52.540Z,43.12
2024-03-28T17:45:42.061Z,43.11
2024-03-28T17:48:31.742Z,43.47
2024-03-28T17:51:21.220Z,43.49
2024-03-28T17:54:10.989Z,43.65
2024-03-28T17:57:00.900Z,43.23
2024-03-28T17:59:50.246Z,43.19
2024-03-28T18:02:40.433Z,43.39
2024-03-28T18:05:31.860Z,43.70
2024-03-28T18:08:22.583Z,44.20
2024-03-28T18:11:12.434Z,44.44
2024-03-28T18:14:02.524Z,43.77
2024-03-28T18:16:52.131Z,43.87
2024-03-28T18:19:41.876Z,44.52
2024-03-28T18:22:31.868Z,44.82
2024-03-28T18:25:21.544Z,45.18
2024-03-28T18:28:11.420Z,45.47
2024-03-28T18:31:06.060Z,46.02
2024-03-28T18:33:56.719Z,46.41
2024-03-28T18:36:47.022Z,46.85
2024-03-28T18:39:36.995Z,47.12
2024-03-28T18:42:27.290Z,47.31
2024-03-28T18:45:17.061Z,47.67
2024-03-28T18:48:07.617Z,47.69
2024-03-28T18:50:57.240Z,47.84
2024-03-28T18:53:47.017Z,48.02
2024-03-28T18:56:37.015Z,48.19
2024-03-28T18:59:26.785Z,48.29
2024-03-28T19:02:16.260Z,48.40
2024-03-28T19:05:05.958Z,48.29
2024-03-28T19:07:55.404Z,48.49
2024-03-28T19:10:45.400Z,48.54
2024-03-28T19:13:37.316Z,48.75
2024-03-28T19:16:27.618Z,49.15
2024-03-28T19:19:17.702Z,49.54
2024-03-28T19:22:07.580Z,49.89
2024-03-28T19:24:57.468Z,49.96
2024-03-28T19:27:51.446Z,49.90
2024-03-28T19:30:45.239Z,50.11
2024-03-28T19:33:36.335Z,50.26
2024-03-28T19:36:29.390Z,50.52
2024-03-28T19:39:19.470Z,51.06
2024-03-28T19:42:09.048Z,51.43
2024-03-28T19:44:59.333Z,51.95
2024-03-28T19:47:50.638Z,52.63
2024-03-28T19:50:40.337Z,53.21
2024-03-28T19:53:30.218Z,53.98
2024-03-28T19:56:20.207Z,54.30
2024-03-28T19:59:09.769Z,54.94
2024-03-28T20:02:00.658Z,55.33
2024-03-28T20:05:12.266Z,55.98
2024-03-28T20:08:05.647Z,56.44
2024-03-28T20:10:58.180Z,56.83
2024-03-28T20:13:47.944Z,57.12
2024-03-28T20:16:37.748Z,57.71
2024-03-28T20:19:27.421Z,58.10
2024-03-28T20:22:16.790Z,58.63
2024-03-28T20:25:07.599Z,59.71
2024-03-28T20:27:57.266Z,60.00
2024-03-28T20:30:47.157Z,59.50
2024-03-28T20:33:37.234Z,59.62
2024-03-28T20:36:26.613Z,60.28
2024-03-28T20:39:16.590Z,60.17
2024-03-28T20:42:06.574Z,61.05
2024-03-28T20:44:59.024Z,61.13
2024-03-28T20:47:48.622Z,61.45
2024-03-28T20:50:40.469Z,61.83
2024-03-28T20:53:30.200Z,63.06
2024-03-28T20:56:21.448Z,63.29
2024-03-28T20:59:11.546Z,63.45
2024-03-28T21:02:00.772Z,64.47
2024-03-28T21:04:50.763Z,64.92
2024-03-28T21:07:59.071Z,65.20
2024-03-28T21:10:49.056Z,64.77
2024-03-28T21:13:38.421Z,64.33
2024-03-28T21:16:28.622Z,64.96
2024-03-28T21:19:19.519Z,66.73
2024-03-28T21:22:12.527Z,67.89
2024-03-28T21:25:02.257Z,68.27
2024-03-28T21:27:51.930Z,68.47
2024-03-28T21:30:41.400Z,68.37
2024-03-28T21:33:30.579Z,68.78
2024-03-28T21:36:20.556Z,68.72
2024-03-28T21:39:11.037Z,68.63
2024-03-28T21:42:00.935Z,69.57
2024-03-28T21:45:06.055Z,69.29
2024-03-28T21:48:03.235Z,69.16
2024-03-28T21:50:53.311Z,68.74
2024-03-28T21:53:43.404Z,68.56
2024-03-28T21:56:34.324Z,67.86
2024-03-28T21:59:23.789Z,68.03
2024-03-28T22:02:14.281Z,67.82
2024-03-28T22:05:04.358Z,68.02
2024-03-28T22:07:54.570Z,68.25
2024-03-28T22:10:43.830Z,68.55
2024-03-28T22:13:33.607Z,68.16
2024-03-28T22:16:23.590Z,68.66
2024-03-28T22:19:13.371Z,67.99
2024-03-28T22:22:03.248Z,68.30
2024-03-28T22:24:59.812Z,69.12
2024-03-28T22:27:51.204Z,68.81
2024-03-28T22:30:41.298Z,68.43
2024-03-28T22:33:31.279Z,68.28
2024-03-28T22:36:21.061Z,67.65
2024-03-28T22:39:10.628Z,67.42
2024-03-28T22:42:00.414Z,67.70
2024-03-28T22:44:49.878Z,68.64
2024-03-28T22:47:40.478Z,68.68
2024-03-28T22:50:30.167Z,68.45
2024-03-28T22:53:21.452Z,68.42
2024-03-28T22:56:11.315Z,68.82
2024-03-28T22:59:01.390Z,69.30
2024-03-28T23:01:50.911Z,69.31
2024-03-28T23:04:40.698Z,69.63
2024-03-28T23:07:30.284Z,69.49
2024-03-28T23:10:19.849Z,69.51
2024-03-28T23:13:09.529Z,69.48
2024-03-28T23:15:58.905Z,69.06
2024-03-28T23:18:49.086Z,68.64
2024-03-28T23:21:39.036Z,68.15
2024-03-28T23:24:29.153Z,66.99
2024-03-28T23:27:19.034Z,65.63
2024-03-28T23:30:09.567Z,65.05
2024-03-28T23:32:59.002Z,65.14
2024-03-28T23:35:48.785Z,64.68
2024-03-28T23:38:38.253Z,64.03
2024-03-28T23:41:28.552Z,63.72
2024-03-28T23:44:18.533Z,63.44
2024-03-28T23:47:08.111Z,63.15
2024-03-28T23:49:59.542Z,63.17
2024-03-28T23:52:48.995Z,62.95
2024-03-28T23:55:48.201Z,62.71
2024-03-28T23:58:37.881Z,62.68
